Time;durP1;ratioP1;P1;durP2;ratioP2;P2;SDS_P1;SDS_P2;PMS_P1;PMS_P2;Temp;Humidity;BMP_temperature;BMP_pressure;BME280_temperature;BME280_humidity;BME280_pressure;Samples;Min_cycle;Max_cycle;Signal;HPM_P1;HPM_P2
2023/02/26 00:00:29;;;;;;;26.88;14.38;;;;;;;2.87;71.28;97492.59;5053002;28;20029;-65
2023/02/26 00:02:54;;;;;;;26.42;15.15;;;;;;;2.75;72.12;97459.31;5052461;28;20059;-67
2023/02/26 00:05:20;;;;;;;27.25;14.88;;;;;;;2.93;71.02;97481.50;5052534;28;20771;-64
2023/02/26 00:07:46;;;;;;;24.33;14.13;;;;;;;2.81;71.10;97442.91;5051515;28;20083;-65
2023/02/26 00:10:13;;;;;;;27.73;15.45;;;;;;;2.84;71.46;97451.41;5052588;28;20036;-64
2023/02/26 00:12:39;;;;;;;26.88;16.02;;;;;;;2.76;71.79;97447.75;5033947;28;20033;-66
2023/02/26 00:15:07;;;;;;;28.00;15.70;;;;;;;2.48;72.65;97405.25;5040072;28;20033;-66
2023/02/26 00:17:55;;;;;;;26.73;14.13;;;;;;;2.83;71.87;97425.97;5050665;28;20060;-65
2023/02/26 00:20:21;;;;;;;25.05;15.07;;;;;;;2.84;72.00;97432.06;5032820;28;20037;-65
2023/02/26 00:22:47;;;;;;;25.15;14.38;;;;;;;2.72;71.82;97416.34;5033013;28;20091;-65
2023/02/26 00:25:13;;;;;;;25.15;14.35;;;;;;;2.80;71.49;97402.44;5030834;28;20400;-64
2023/02/26 00:27:39;;;;;;;21.63;11.80;;;;;;;2.80;71.50;97406.88;5032417;28;20506;-66
2023/02/26 00:30:08;;;;;;;18.17;11.20;;;;;;;2.85;71.24;97404.66;5032640;28;20033;-66
2023/02/26 00:32:35;;;;;;;17.92;10.82;;;;;;;2.82;71.60;97397.00;5050885;28;20032;-67
2023/02/26 00:35:01;;;;;;;19.73;12.55;;;;;;;2.66;71.95;97395.75;5052432;28;20083;-65
2023/02/26 00:37:34;;;;;;;20.00;11.32;;;;;;;2.59;72.17;97378.72;5051369;28;20041;-65
2023/02/26 00:40:05;;;;;;;21.05;12.32;;;;;;;2.55;72.56;97385.25;5052566;28;20047;-67
2023/02/26 00:42:31;;;;;;;20.33;12.63;;;;;;;2.33;72.47;97336.94;5031948;28;20045;-64
2023/02/26 00:44:57;;;;;;;19.80;12.52;;;;;;;2.53;72.92;97358.13;5032048;28;20441;-66
2023/02/26 00:47:48;;;;;;;20.92;11.55;;;;;;;2.65;72.59;97359.72;5031284;28;20056;-66
2023/02/26 00:50:22;;;;;;;22.23;13.77;;;;;;;2.64;72.07;97331.59;5033135;28;20037;-65
2023/02/26 00:52:50;;;;;;;20.65;12.77;;;;;;;2.65;72.41;97328.03;5032259;28;20055;-66
2023/02/26 00:55:16;;;;;;;20.75;13.60;;;;;;;2.60;71.73;97332.84;5032007;28;20039;-68
2023/02/26 00:57:41;;;;;;;19.92;13.32;;;;;;;2.19;72.99;97297.72;5032137;28;20121;-66
2023/02/26 01:00:08;;;;;;;20.15;12.27;;;;;;;2.37;73.52;97337.53;5032734;28;20083;-67
2023/02/26 01:02:35;;;;;;;19.10;12.07;;;;;;;2.15;73.08;97328.81;5031667;28;20030;-65
2023/02/26 01:05:00;;;;;;;19.38;12.38;;;;;;;2.37;72.62;97359.47;5050443;28;20029;-65
2023/02/26 01:07:27;;;;;;;20.38;12.48;;;;;;;2.20;73.92;97349.53;5051930;28;20079;-65
2023/02/26 01:09:53;;;;;;;18.88;11.55;;;;;;;2.34;72.80;97349.16;5051868;28;20052;-65
2023/02/26 01:12:19;;;;;;;19.98;11.55;;;;;;;2.18;73.66;97351.47;5051590;28;20432;-64
2023/02/26 01:14:46;;;;;;;17.88;11.88;;;;;;;2.11;73.63;97338.78;5051713;28;20048;-65
2023/02/26 01:17:31;;;;;;;18.02;11.23;;;;;;;2.17;74.09;97344.50;5051689;28;20068;-66
2023/02/26 01:20:04;;;;;;;16.48;10.45;;;;;;;2.16;74.14;97343.69;5052132;28;20037;-66
2023/02/26 01:22:53;;;;;;;18.10;11.38;;;;;;;1.98;74.19;97330.28;5051882;28;20118;-64
2023/02/26 01:25:26;;;;;;;17.80;10.52;;;;;;;2.00;74.92;97323.88;5050805;28;20463;-66
2023/02/26 01:27:52;;;;;;;16.52;10.68;;;;;;;2.13;74.12;97317.56;5047340;28;20065;-64
2023/02/26 01:30:19;;;;;;;15.60;10.15;;;;;;;2.03;74.28;97327.22;5036042;28;20057;-65
2023/02/26 01:32:55;;;;;;;15.95;9.63;;;;;;;1.96;74.92;97303.19;5051886;28;20048;-65
2023/02/26 01:35:39;;;;;;;13.30;8.52;;;;;;;2.13;74.65;97315.72;5051879;28;20428;-66
2023/02/26 01:38:15;;;;;;;16.08;10.38;;;;;;;2.08;74.17;97310.03;5055446;28;20049;-68
2023/02/26 01:40:59;;;;;;;14.20;8.65;;;;;;;2.15;74.18;97313.78;5055430;28;20033;-65
2023/02/26 01:43:43;;;;;;;17.17;8.18;;;;;;;1.89;74.87;97305.50;5054433;28;20464;-65
2023/02/26 01:46:24;;;;;;;14.18;8.35;;;;;;;1.95;74.80;97294.41;5023895;28;20113;-66
2023/02/26 01:48:51;;;;;;;11.52;7.22;;;;;;;1.81;75.04;97306.16;5035335;28;20033;-67
2023/02/26 01:51:38;;;;;;;12.68;7.75;;;;;;;1.80;75.39;97286.00;5034588;28;20042;-66
2023/02/26 01:54:03;;;;;;;12.95;7.85;;;;;;;1.86;75.22;97293.41;5035628;28;20057;-65
2023/02/26 01:56:29;;;;;;;12.15;7.28;;;;;;;1.88;75.09;97284.50;5035164;28;20053;-67
2023/02/26 01:58:54;;;;;;;9.48;6.18;;;;;;;1.88;74.92;97279.22;5037809;28;20029;-65
2023/02/26 02:01:20;;;;;;;10.75;7.15;;;;;;;1.57;76.28;97249.25;5055395;28;20329;-66
2023/02/26 02:03:45;;;;;;;7.45;4.53;;;;;;;1.89;75.89;97259.78;5055050;28;20033;-66
2023/02/26 02:06:23;;;;;;;9.82;6.53;;;;;;;1.95;75.89;97264.56;5052010;28;20029;-66
2023/02/26 02:08:49;;;;;;;6.15;4.78;;;;;;;1.88;75.55;97274.81;5035560;28;20033;-67
2023/02/26 02:11:15;;;;;;;7.82;5.70;;;;;;;1.87;75.77;97257.31;5035065;28;20056;-67
2023/02/26 02:13:53;;;;;;;7.55;5.28;;;;;;;1.91;75.33;97255.22;5033662;28;20083;-65
2023/02/26 02:16:51;;;;;;;7.97;5.25;;;;;;;1.80;76.08;97257.00;5036994;28;20041;-67
2023/02/26 02:19:19;;;;;;;6.50;4.88;;;;;;;1.85;76.22;97253.97;5047815;28;20033;-66
2023/02/26 02:22:22;;;;;;;7.40;5.10;;;;;;;1.84;76.67;97247.84;5034743;28;20042;-67
2023/02/26 02:24:47;;;;;;;8.77;5.70;;;;;;;1.82;76.48;97241.03;5035139;28;20041;-65
2023/02/26 02:27:35;;;;;;;8.38;5.70;;;;;;;1.96;75.96;97242.47;5036335;28;20045;-65
2023/02/26 02:30:03;;;;;;;5.80;4.20;;;;;;;2.12;74.50;97256.00;5034484;28;20033;-66
2023/02/26 02:32:47;;;;;;;8.77;6.20;;;;;;;1.92;75.82;97256.88;5034527;28;20051;-65
2023/02/26 02:35:16;;;;;;;9.02;6.15;;;;;;;1.92;75.75;97259.53;5034963;28;20033;-66
2023/02/26 02:38:03;;;;;;;6.40;4.85;;;;;;;1.95;75.48;97244.28;5035059;28;20046;-67
2023/02/26 02:40:37;;;;;;;9.25;5.88;;;;;;;1.74;76.35;97246.13;5033573;28;20136;-66
2023/02/26 02:43:12;;;;;;;8.27;5.63;;;;;;;1.72;76.71;97233.09;5033186;28;20069;-67
2023/02/26 02:45:50;;;;;;;5.80;3.95;;;;;;;1.89;75.98;97236.03;5041766;28;20455;-65
2023/02/26 02:48:24;;;;;;;6.70;5.38;;;;;;;1.81;76.04;97229.63;5052716;28;20048;-66
2023/02/26 02:50:58;;;;;;;7.47;5.07;;;;;;;1.68;76.73;97221.09;5045100;28;20121;-65
2023/02/26 02:53:32;;;;;;;7.28;4.63;;;;;;;1.80;75.72;97225.34;5033278;28;20046;-66
2023/02/26 02:56:09;;;;;;;4.38;3.10;;;;;;;1.81;75.89;97218.25;5034841;28;20036;-64
2023/02/26 02:58:48;;;;;;;7.63;5.07;;;;;;;1.70;76.39;97211.28;5033817;28;20067;-65
2023/02/26 03:01:18;;;;;;;6.28;4.32;;;;;;;1.62;76.99;97206.66;5034105;28;20436;-66
2023/02/26 03:04:06;;;;;;;7.43;4.75;;;;;;;1.70;76.42;97212.09;5034075;28;20040;-67
2023/02/26 03:06:32;;;;;;;5.38;4.30;;;;;;;1.55;77.03;97197.59;5051026;28;20045;-65
2023/02/26 03:09:00;;;;;;;7.10;4.63;;;;;;;1.66;76.97;97215.13;5054122;28;20037;-66
2023/02/26 03:11:26;;;;;;;5.95;4.55;;;;;;;1.65;77.47;97200.28;5053682;28;20371;-65
2023/02/26 03:13:52;;;;;;;6.95;4.90;;;;;;;1.68;77.34;97205.28;5036709;28;20029;-64
2023/02/26 03:16:48;;;;;;;6.25;4.70;;;;;;;1.80;76.93;97203.38;5054122;28;20033;-67
2023/02/26 03:19:25;;;;;;;7.00;5.07;;;;;;;1.72;77.43;97191.69;5051622;28;20079;-65
2023/02/26 03:22:20;;;;;;;7.07;4.97;;;;;;;1.85;77.21;97211.75;5053482;28;20037;-68
2023/02/26 03:25:27;;;;;;;7.55;5.38;;;;;;;1.83;76.65;97195.22;5048587;28;20033;-64
2023/02/26 03:28:06;;;;;;;11.35;5.75;;;;;;;1.91;76.77;97199.81;5027927;28;20408;-65
2023/02/26 03:30:40;;;;;;;7.65;5.78;;;;;;;1.81;76.64;97183.94;5033554;28;20026;-65
2023/02/26 03:33:39;;;;;;;9.18;5.70;;;;;;;1.93;77.13;97203.13;5015987;28;20120;-66
2023/02/26 03:36:17;;;;;;;8.48;5.55;;;;;;;1.94;76.63;97196.94;5032298;28;20419;-65
2023/02/26 03:38:51;;;;;;;9.90;6.07;;;;;;;1.99;76.85;97195.53;5033640;28;20077;-71
2023/02/26 03:41:21;;;;;;;8.25;5.75;;;;;;;1.94;77.41;97194.28;5032490;28;20025;-65
2023/02/26 03:43:53;;;;;;;9.35;6.38;;;;;;;1.98;77.33;97214.97;5047382;28;20037;-66
2023/02/26 03:46:26;;;;;;;11.02;6.97;;;;;;;1.94;76.96;97202.19;5033571;28;20467;-65
2023/02/26 03:48:54;;;;;;;9.60;6.60;;;;;;;1.98;76.98;97212.34;5033581;28;20037;-65
2023/02/26 03:51:20;;;;;;;10.65;6.80;;;;;;;1.98;77.39;97206.22;5033161;28;20037;-65
2023/02/26 03:53:54;;;;;;;9.82;6.88;;;;;;;2.00;77.28;97207.75;5032118;28;20068;-66
2023/02/26 03:56:43;;;;;;;10.18;7.13;;;;;;;2.20;76.94;97210.44;5033696;28;20099;-65
2023/02/26 03:59:09;;;;;;;9.95;6.53;;;;;;;2.06;76.84;97213.50;5032663;28;20361;-65
2023/02/26 04:01:45;;;;;;;9.35;6.70;;;;;;;2.08;77.44;97206.28;5032718;28;20029;-65
2023/02/26 04:04:18;;;;;;;9.70;6.47;;;;;;;2.13;77.35;97214.59;5033742;28;20057;-66
2023/02/26 04:06:46;;;;;;;11.23;7.07;;;;;;;1.92;77.48;97188.28;5032039;28;20444;-70
2023/02/26 04:09:11;;;;;;;9.93;6.53;;;;;;;2.10;76.91;97214.88;5052764;28;20036;-65
2023/02/26 04:11:38;;;;;;;12.40;7.78;;;;;;;2.08;77.43;97219.47;5053079;28;20029;-64
2023/02/26 04:14:04;;;;;;;8.20;6.18;;;;;;;2.05;77.45;97227.63;5053255;28;20478;-66
2023/02/26 04:16:29;;;;;;;9.48;5.72;;;;;;;1.83;77.62;97190.75;5052727;28;20033;-65
2023/02/26 04:18:54;;;;;;;8.45;5.45;;;;;;;2.18;77.89;97235.34;5052697;28;20029;-65
2023/02/26 04:21:21;;;;;;;6.13;5.07;;;;;;;2.15;77.65;97242.53;5053161;28;20024;-64
2023/02/26 04:23:47;;;;;;;7.20;5.82;;;;;;;2.18;77.97;97244.06;5050503;28;20044;-65
2023/02/26 04:26:13;;;;;;;7.07;5.82;;;;;;;2.01;78.00;97205.97;5032704;28;20041;-66
2023/02/26 04:28:39;;;;;;;6.90;5.50;;;;;;;2.26;77.51;97252.13;5032647;28;20040;-68
2023/02/26 04:31:06;;;;;;;7.70;5.22;;;;;;;2.08;77.80;97212.38;5032224;28;20037;-65
2023/02/26 04:33:32;;;;;;;7.63;5.53;;;;;;;2.31;78.47;97254.38;5049902;28;20029;-66
2023/02/26 04:35:59;;;;;;;9.13;4.90;;;;;;;2.35;77.62;97250.50;5051304;28;20363;-66
2023/02/26 04:38:24;;;;;;;7.43;5.10;;;;;;;2.41;77.96;97259.69;5051316;28;20033;-65
2023/02/26 04:40:50;;;;;;;6.88;4.50;;;;;;;2.42;77.93;97256.94;5052352;28;20467;-68
2023/02/26 04:43:16;;;;;;;7.18;4.63;;;;;;;2.43;78.11;97266.53;5053055;28;20047;-67
2023/02/26 04:45:47;;;;;;;6.32;4.18;;;;;;;2.28;77.60;97252.84;5032663;28;20114;-66
2023/02/26 04:48:17;;;;;;;8.32;4.03;;;;;;;2.46;77.39;97283.88;5032237;28;20073;-65
2023/02/26 04:50:43;;;;;;;5.13;3.88;;;;;;;2.41;77.33;97272.91;5033018;28;20060;-66
2023/02/26 04:53:09;;;;;;;5.28;3.60;;;;;;;2.39;77.25;97293.31;5031669;28;20025;-67
2023/02/26 04:55:35;;;;;;;6.60;3.95;;;;;;;2.34;78.26;97293.72;5031921;28;20041;-67
2023/02/26 04:58:01;;;;;;;6.82;3.50;;;;;;;2.40;77.36;97287.06;5050855;28;20029;-65
2023/02/26 05:00:27;;;;;;;4.20;3.33;;;;;;;2.45;77.23;97292.78;5052286;28;20039;-66
2023/02/26 05:02:52;;;;;;;4.53;3.30;;;;;;;2.44;76.85;97291.97;5052463;28;20033;-66
2023/02/26 05:05:18;;;;;;;4.53;3.30;;;;;;;2.42;77.50;97312.38;5034896;28;20033;-69
2023/02/26 05:07:43;;;;;;;4.35;2.88;;;;;;;2.46;77.38;97309.47;5020855;28;20078;-66
2023/02/26 05:10:09;;;;;;;3.22;2.55;;;;;;;2.47;77.70;97309.31;5052207;28;20083;-67
2023/02/26 05:12:35;;;;;;;5.30;2.60;;;;;;;2.47;77.60;97333.09;5054150;28;20458;-65
2023/02/26 05:15:00;;;;;;;3.85;2.75;;;;;;;2.48;77.66;97334.75;5056103;28;20108;-66
2023/02/26 05:17:26;;;;;;;4.25;2.22;;;;;;;2.50;76.99;97339.91;5055297;28;20748;-65
2023/02/26 05:19:51;;;;;;;3.05;2.40;;;;;;;2.47;77.30;97348.13;5044472;28;20025;-66
2023/02/26 05:22:17;;;;;;;3.97;2.53;;;;;;;2.47;77.02;97342.84;5042623;28;20037;-65
2023/02/26 05:24:42;;;;;;;5.13;2.45;;;;;;;2.46;77.33;97349.91;5048708;28;20476;-67
2023/02/26 05:27:08;;;;;;;2.78;2.17;;;;;;;2.40;77.23;97342.53;5044592;28;20338;-66
2023/02/26 05:29:34;;;;;;;5.40;2.33;;;;;;;2.49;77.34;97351.47;5037977;28;20036;-66
2023/02/26 05:32:01;;;;;;;3.33;1.85;;;;;;;2.43;76.93;97348.38;5035609;28;20360;-66
2023/02/26 05:34:27;;;;;;;3.20;2.30;;;;;;;2.22;77.17;97314.09;5035614;28;20034;-65
2023/02/26 05:36:52;;;;;;;8.00;2.10;;;;;;;2.48;77.25;97376.19;5035807;28;20052;-66
2023/02/26 05:39:18;;;;;;;2.33;1.50;;;;;;;2.55;76.75;97372.91;5045242;28;20025;-66
2023/02/26 05:41:45;;;;;;;2.60;1.60;;;;;;;2.52;76.89;97381.06;5040673;28;20064;-67
2023/02/26 05:44:11;;;;;;;2.13;1.77;;;;;;;2.43;77.19;97369.50;5038456;28;20037;-70
2023/02/26 05:46:36;;;;;;;4.88;1.80;;;;;;;2.51;77.26;97389.13;5043844;28;20041;-70
2023/02/26 05:49:02;;;;;;;2.15;1.58;;;;;;;2.52;76.97;97388.97;5044535;28;20024;-65
2023/02/26 05:51:28;;;;;;;1.92;1.75;;;;;;;2.29;77.31;97370.72;5046990;28;20041;-66
2023/02/26 05:53:53;;;;;;;3.05;1.77;;;;;;;2.48;76.57;97399.97;5055162;28;20161;-66
2023/02/26 05:56:19;;;;;;;4.00;1.90;;;;;;;2.53;76.78;97400.41;5053103;28;20082;-65
2023/02/26 05:58:44;;;;;;;1.60;1.20;;;;;;;2.57;76.66;97413.22;5043427;28;20040;-66
2023/02/26 06:01:10;;;;;;;3.08;1.52;;;;;;;2.52;76.44;97404.00;5042829;28;20348;-65
2023/02/26 06:03:36;;;;;;;1.98;1.50;;;;;;;2.60;76.15;97412.09;5043397;28;20484;-65
2023/02/26 06:06:01;;;;;;;2.60;1.60;;;;;;;2.57;76.23;97409.72;5042437;28;20033;-66
2023/02/26 06:08:27;;;;;;;4.10;2.40;;;;;;;2.59;76.37;97418.34;5046555;28;20115;-67
2023/02/26 06:10:52;;;;;;;2.65;2.00;;;;;;;2.72;76.51;97421.63;5041674;28;20029;-64
2023/02/26 06:13:18;;;;;;;2.50;1.63;;;;;;;2.81;76.04;97419.97;5027664;28;20031;-66
2023/02/26 06:15:43;;;;;;;2.28;1.65;;;;;;;2.85;75.65;97424.03;5042546;28;20384;-65
2023/02/26 06:18:09;;;;;;;3.70;1.45;;;;;;;2.90;75.14;97428.06;5043817;28;20030;-66
2023/02/26 06:20:35;;;;;;;2.13;1.70;;;;;;;2.96;75.90;97431.00;5040624;28;20053;-64
2023/02/26 06:23:00;;;;;;;1.95;1.40;;;;;;;3.01;74.92;97426.16;5049275;28;20376;-63
2023/02/26 06:25:26;;;;;;;5.78;1.80;;;;;;;3.04;75.14;97435.63;5054882;28;20036;-62
2023/02/26 06:27:51;;;;;;;6.53;1.92;;;;;;;3.12;74.85;97442.84;5055316;28;20118;-65
2023/02/26 06:30:17;;;;;;;3.13;1.63;;;;;;;3.14;74.45;97447.06;5054954;28;20025;-64
2023/02/26 06:32:43;;;;;;;2.97;1.70;;;;;;;2.93;73.94;97415.44;5054482;28;20064;-64
2023/02/26 06:35:09;;;;;;;7.15;2.10;;;;;;;3.20;74.09;97460.69;5048701;28;20064;-63
2023/02/26 06:37:35;;;;;;;2.42;2.00;;;;;;;3.19;73.67;97453.72;5033995;28;20429;-63
2023/02/26 06:40:01;;;;;;;5.45;2.15;;;;;;;3.18;73.52;97454.72;5034561;28;20073;-63
2023/02/26 06:42:26;;;;;;;3.67;2.20;;;;;;;3.25;73.67;97454.03;5046445;28;20383;-62
2023/02/26 06:44:52;;;;;;;4.45;2.20;;;;;;;3.37;73.18;97456.53;5054723;28;20439;-66
2023/02/26 06:47:17;;;;;;;5.40;1.95;;;;;;;3.20;73.07;97435.09;5054367;28;20120;-64
2023/02/26 06:49:43;;;;;;;2.70;2.10;;;;;;;3.40;72.99;97475.63;5054235;28;20419;-62
2023/02/26 06:52:08;;;;;;;8.35;2.53;;;;;;;3.48;72.89;97474.09;5054238;28;20024;-63
2023/02/26 06:54:34;;;;;;;3.45;2.50;;;;;;;3.44;72.44;97462.97;5054530;28;20029;-63
2023/02/26 06:57:01;;;;;;;2.90;2.05;;;;;;;3.48;72.31;97482.88;5054461;28;20403;-63
2023/02/26 06:59:27;;;;;;;4.38;2.28;;;;;;;3.40;72.49;97480.09;5051506;28;20036;-63
2023/02/26 07:01:53;;;;;;;4.10;2.47;;;;;;;3.43;71.87;97493.88;5033992;28;20052;-65
2023/02/26 07:04:18;;;;;;;7.70;2.80;;;;;;;3.41;72.58;97495.81;5034594;28;20029;-63
2023/02/26 07:06:44;;;;;;;7.88;2.83;;;;;;;3.33;72.82;97487.75;5034606;28;20071;-64
2023/02/26 07:09:09;;;;;;;6.50;2.40;;;;;;;3.49;72.08;97513.66;5033912;28;20104;-64
2023/02/26 07:11:35;;;;;;;4.15;2.75;;;;;;;3.45;72.11;97502.50;5033059;28;20349;-63
2023/02/26 07:14:00;;;;;;;4.03;2.30;;;;;;;3.43;71.98;97506.28;5032992;28;20025;-64
2023/02/26 07:16:26;;;;;;;5.55;2.20;;;;;;;3.49;71.34;97511.03;5032752;28;20435;-64
2023/02/26 07:18:51;;;;;;;3.15;2.50;;;;;;;3.48;71.86;97506.69;5033300;28;20033;-64
2023/02/26 07:21:17;;;;;;;4.63;2.10;;;;;;;3.48;72.11;97509.34;5033296;28;20033;-64
2023/02/26 07:23:42;;;;;;;4.10;2.50;;;;;;;3.48;71.31;97514.63;5033551;28;20048;-64
2023/02/26 07:26:07;;;;;;;4.55;2.83;;;;;;;3.49;71.88;97518.94;5052591;28;20167;-63
2023/02/26 07:28:33;;;;;;;3.40;2.45;;;;;;;3.33;71.62;97484.25;5053303;28;20037;-63
2023/02/26 07:30:59;;;;;;;3.03;2.40;;;;;;;3.59;71.21;97516.31;5052543;28;20062;-65
2023/02/26 07:33:27;;;;;;;3.42;2.63;;;;;;;3.64;71.25;97526.50;5052698;28;20440;-67
2023/02/26 07:35:54;;;;;;;3.28;2.45;;;;;;;3.65;71.15;97523.72;5053164;28;20136;-63
2023/02/26 07:38:20;;;;;;;4.78;2.60;;;;;;;3.72;70.81;97534.59;5053647;28;20072;-64
2023/02/26 07:40:46;;;;;;;3.17;2.50;;;;;;;3.83;70.04;97537.09;5037175;28;20412;-63
2023/02/26 07:43:11;;;;;;;3.83;2.38;;;;;;;3.93;70.02;97528.34;5033140;28;20112;-63
2023/02/26 07:45:37;;;;;;;4.68;2.28;;;;;;;3.99;70.00;97526.00;5039741;28;20151;-64
2023/02/26 07:48:03;;;;;;;3.22;2.25;;;;;;;4.05;69.55;97537.00;5042449;28;20363;-63
2023/02/26 07:50:28;;;;;;;3.90;2.55;;;;;;;4.11;69.00;97539.94;5040768;28;20116;-64
2023/02/26 07:52:54;;;;;;;5.40;2.28;;;;;;;4.09;68.63;97552.44;5043739;28;20155;-64
2023/02/26 07:55:20;;;;;;;3.22;2.40;;;;;;;4.13;68.02;97548.56;5047801;28;20025;-63
2023/02/26 07:57:46;;;;;;;3.63;2.30;;;;;;;4.11;68.16;97550.53;5052354;28;20035;-63
2023/02/26 08:00:12;;;;;;;3.20;2.10;;;;;;;4.09;67.59;97549.78;5051827;28;20052;-64
2023/02/26 08:02:38;;;;;;;2.70;1.95;;;;;;;3.99;68.12;97554.25;5052151;28;20033;-64
2023/02/26 08:05:04;;;;;;;2.28;2.08;;;;;;;4.00;68.40;97558.59;5043685;28;20092;-64
2023/02/26 08:07:30;;;;;;;2.55;2.08;;;;;;;3.84;68.04;97522.88;5041296;28;20044;-65
2023/02/26 08:09:55;;;;;;;3.28;1.95;;;;;;;4.06;66.70;97547.44;5041418;28;20033;-64
2023/02/26 08:12:21;;;;;;;3.97;1.95;;;;;;;3.76;66.80;97506.06;5042076;28;20436;-63
2023/02/26 08:14:47;;;;;;;4.88;1.95;;;;;;;4.10;66.48;97559.44;5035410;28;20080;-63
2023/02/26 08:17:13;;;;;;;2.30;2.10;;;;;;;3.86;66.76;97539.50;5032566;28;20436;-63
2023/02/26 08:19:38;;;;;;;3.35;1.90;;;;;;;4.18;65.96;97571.16;5031614;28;20021;-65
2023/02/26 08:22:04;;;;;;;5.10;1.90;;;;;;;4.24;66.37;97581.19;5032152;28;20045;-64
2023/02/26 08:24:29;;;;;;;4.35;2.05;;;;;;;4.32;65.26;97573.34;5031531;28;20025;-63
2023/02/26 08:26:55;;;;;;;2.33;1.95;;;;;;;4.32;64.58;97589.25;5031899;28;20041;-66
2023/02/26 08:29:21;;;;;;;3.13;1.95;;;;;;;4.25;65.31;97551.91;5032370;28;20033;-63
2023/02/26 08:31:47;;;;;;;4.32;2.40;;;;;;;4.74;64.91;97585.47;5033166;28;20409;-64
2023/02/26 08:34:13;;;;;;;3.45;2.10;;;;;;;5.20;64.11;97593.56;5040066;28;20456;-64
2023/02/26 08:36:38;;;;;;;1.77;1.45;;;;;;;5.72;61.68;97594.88;5041432;28;20045;-66
2023/02/26 08:39:05;;;;;;;1.77;1.58;;;;;;;6.06;59.89;97599.63;5039028;28;20036;-68
2023/02/26 08:41:31;;;;;;;2.60;1.92;;;;;;;6.16;59.91;97603.03;5039642;28;20383;-65
2023/02/26 08:43:58;;;;;;;2.67;1.92;;;;;;;6.21;60.62;97607.06;5042552;28;20099;-66
2023/02/26 08:46:24;;;;;;;4.47;2.40;;;;;;;5.99;60.40;97562.16;5042358;28;20036;-67
2023/02/26 08:48:49;;;;;;;3.03;2.33;;;;;;;6.53;60.09;97625.13;5042572;28;20447;-67
2023/02/26 08:51:15;;;;;;;3.20;2.17;;;;;;;6.75;59.56;97625.66;5040861;28;20481;-65
2023/02/26 08:53:40;;;;;;;2.10;1.77;;;;;;;6.97;58.14;97626.97;5037609;28;20039;-65
2023/02/26 08:56:06;;;;;;;3.17;2.00;;;;;;;6.99;57.56;97629.50;5039362;28;20048;-64
2023/02/26 08:58:31;;;;;;;3.53;1.70;;;;;;;6.70;57.55;97622.63;5042596;28;20021;-68
2023/02/26 09:00:57;;;;;;;1.85;1.63;;;;;;;6.41;58.25;97640.47;5040592;28;20025;-65
2023/02/26 09:03:22;;;;;;;2.97;1.80;;;;;;;6.06;59.27;97636.81;5042276;28;20112;-64
2023/02/26 09:05:49;;;;;;;2.72;1.38;;;;;;;5.70;59.20;97647.31;5041343;28;20108;-65
2023/02/26 09:08:14;;;;;;;2.33;1.42;;;;;;;5.38;59.99;97637.94;5040474;28;20029;-64
2023/02/26 09:10:41;;;;;;;3.15;1.10;;;;;;;5.11;59.50;97652.81;5040388;28;20301;-64
2023/02/26 09:13:07;;;;;;;1.58;1.20;;;;;;;4.60;60.22;97631.81;5041178;28;20037;-63
2023/02/26 09:15:32;;;;;;;4.30;1.30;;;;;;;4.65;61.17;97658.72;5040229;28;20028;-63
2023/02/26 09:17:58;;;;;;;4.60;1.60;;;;;;;4.51;60.59;97670.56;5041214;28;20016;-65
2023/02/26 09:20:24;;;;;;;1.60;1.35;;;;;;;4.40;60.67;97666.25;5042852;28;20036;-63
2023/02/26 09:22:49;;;;;;;1.40;1.10;;;;;;;4.27;60.29;97663.00;5043768;28;20519;-64
2023/02/26 09:25:15;;;;;;;3.63;1.30;;;;;;;4.18;61.18;97671.78;5039823;28;20468;-64
2023/02/26 09:27:40;;;;;;;2.45;1.40;;;;;;;4.13;61.64;97680.13;5042277;28;20107;-64
2023/02/26 09:30:06;;;;;;;6.53;1.60;;;;;;;4.14;61.70;97695.91;5038591;28;20056;-63
2023/02/26 09:32:32;;;;;;;3.05;1.40;;;;;;;4.18;61.30;97695.63;5041110;28;20475;-65
2023/02/26 09:34:57;;;;;;;1.65;1.48;;;;;;;4.21;61.59;97698.00;5033346;28;20053;-63
2023/02/26 09:37:23;;;;;;;4.38;1.50;;;;;;;4.25;61.50;97699.41;5041330;28;20073;-64
2023/02/26 09:39:49;;;;;;;1.52;1.10;;;;;;;4.26;61.64;97695.78;5040413;28;20049;-65
2023/02/26 09:42:29;;;;;;;1.45;1.35;;;;;;;4.36;61.52;97701.09;5040715;28;20037;-64
2023/02/26 09:44:58;;;;;;;1.80;1.30;;;;;;;4.48;60.58;97705.31;5040369;28;20049;-65
2023/02/26 09:47:38;;;;;;;3.92;1.52;;;;;;;4.67;60.53;97699.19;5045403;28;20475;-64
2023/02/26 09:50:18;;;;;;;3.40;1.77;;;;;;;4.60;59.80;97672.38;5051264;28;20040;-65
2023/02/26 09:53:06;;;;;;;2.47;1.40;;;;;;;4.94;60.12;97712.69;5050996;28;20058;-65
2023/02/26 09:55:38;;;;;;;1.98;1.50;;;;;;;4.98;59.69;97716.75;5037940;28;20033;-66
2023/02/26 09:58:17;;;;;;;2.78;1.38;;;;;;;4.93;59.52;97719.81;5046686;28;20033;-66
2023/02/26 10:01:00;;;;;;;3.25;1.45;;;;;;;4.84;59.41;97721.50;5047045;28;20082;-65
2023/02/26 10:03:39;;;;;;;1.30;1.20;;;;;;;4.66;59.75;97726.66;5054394;28;20037;-65
2023/02/26 10:06:20;;;;;;;1.48;1.27;;;;;;;4.51;60.51;97723.56;5042709;28;20111;-66
2023/02/26 10:08:58;;;;;;;4.22;1.10;;;;;;;4.28;61.01;97728.25;5043392;28;20041;-67
2023/02/26 10:11:41;;;;;;;5.50;1.30;;;;;;;4.23;61.56;97733.13;5042186;28;20043;-65
2023/02/26 10:14:30;;;;;;;4.93;1.30;;;;;;;4.21;61.42;97745.69;5041374;28;20341;-63
2023/02/26 10:17:02;;;;;;;1.75;1.52;;;;;;;4.19;61.50;97737.84;5045558;28;20029;-63
2023/02/26 10:19:41;;;;;;;3.95;1.50;;;;;;;4.39;61.47;97741.41;5044690;28;20469;-64
2023/02/26 10:22:21;;;;;;;1.80;1.40;;;;;;;4.49;60.18;97744.09;5050511;28;20106;-64
2023/02/26 10:25:16;;;;;;;4.25;1.60;;;;;;;4.65;58.50;97732.94;5054400;28;20439;-63
2023/02/26 10:27:55;;;;;;;2.30;1.38;;;;;;;5.20;57.50;97750.09;5053211;28;20045;-62
2023/02/26 10:30:36;;;;;;;2.40;1.65;;;;;;;5.50;56.11;97748.22;5054530;28;20100;-64
2023/02/26 10:33:56;;;;;;;2.42;1.60;;;;;;;5.72;55.67;97741.78;5054275;28;20033;-63
2023/02/26 10:36:29;;;;;;;1.90;1.50;;;;;;;5.65;54.51;97761.06;5042104;28;20083;-64
2023/02/26 10:39:05;;;;;;;1.65;1.40;;;;;;;5.42;54.51;97761.38;5034971;28;20021;-64
2023/02/26 10:41:35;;;;;;;3.10;1.20;;;;;;;5.12;54.83;97755.28;5042315;28;20041;-64
2023/02/26 10:44:18;;;;;;;2.60;1.70;;;;;;;4.91;55.97;97772.16;5046896;28;20110;-63
2023/02/26 10:46:59;;;;;;;3.88;1.55;;;;;;;4.72;55.94;97765.03;5042339;28;20577;-64
2023/02/26 10:49:46;;;;;;;2.58;1.40;;;;;;;4.64;56.30;97771.03;5040803;28;20423;-64
2023/02/26 10:52:18;;;;;;;2.58;1.48;;;;;;;4.67;55.88;97776.06;5042390;28;20478;-65
2023/02/26 10:55:12;;;;;;;2.92;1.80;;;;;;;4.76;56.38;97774.38;5041853;28;20075;-63
2023/02/26 10:57:43;;;;;;;3.45;1.80;;;;;;;4.72;55.74;97784.41;5045334;28;20048;-63
2023/02/26 11:00:16;;;;;;;2.55;1.75;;;;;;;4.76;54.92;97781.50;5042780;28;20040;-63
2023/02/26 11:02:44;;;;;;;3.63;1.67;;;;;;;4.67;55.65;97778.69;5043887;28;20036;-63
2023/02/26 11:05:17;;;;;;;2.75;1.60;;;;;;;4.71;55.55;97768.66;5030493;28;20041;-65
2023/02/26 11:07:45;;;;;;;2.40;1.48;;;;;;;4.78;55.34;97779.53;5033830;28;20083;-63
2023/02/26 11:10:18;;;;;;;1.60;1.48;;;;;;;4.68;55.05;97766.25;5041488;28;20128;-60
2023/02/26 11:12:43;;;;;;;3.53;2.10;;;;;;;4.63;55.44;97774.66;5042891;28;20025;-60
2023/02/26 11:15:14;;;;;;;3.72;1.83;;;;;;;4.65;55.57;97785.09;5033811;28;20108;-60
2023/02/26 11:17:40;;;;;;;1.85;1.17;;;;;;;4.63;55.02;97781.75;5040216;28;20032;-58
2023/02/26 11:20:17;;;;;;;2.28;1.52;;;;;;;4.67;55.37;97786.66;5052934;28;20029;-63
2023/02/26 11:22:55;;;;;;;1.52;1.40;;;;;;;4.73;54.63;97778.16;5044541;28;20316;-55
2023/02/26 11:25:24;;;;;;;3.22;1.42;;;;;;;4.92;53.83;97787.09;5033510;28;20063;-57
2023/02/26 11:27:57;;;;;;;2.60;1.70;;;;;;;5.06;53.62;97783.19;5047211;28;20037;-61
2023/02/26 11:30:26;;;;;;;2.55;1.40;;;;;;;5.25;53.42;97795.63;5035515;28;20029;-58
2023/02/26 11:32:56;;;;;;;2.85;1.65;;;;;;;5.36;52.85;97794.63;5033110;28;20064;-58
2023/02/26 11:35:25;;;;;;;5.80;1.50;;;;;;;5.51;52.69;97789.72;5042545;28;20029;-59
2023/02/26 11:37:58;;;;;;;4.80;2.00;;;;;;;5.83;52.06;97801.84;5053621;28;20102;-58
2023/02/26 11:40:38;;;;;;;7.30;2.20;;;;;;;6.01;51.61;97787.81;5048591;28;20033;-57
2023/02/26 11:43:24;;;;;;;5.10;1.70;;;;;;;6.26;51.68;97796.09;5032141;28;20084;-59
2023/02/26 11:46:00;;;;;;;3.05;1.55;;;;;;;6.11;50.78;97785.97;5034038;28;20029;-55
2023/02/26 11:48:47;;;;;;;3.65;1.63;;;;;;;6.15;51.48;97786.53;5043704;28;20041;-58
2023/02/26 11:51:17;;;;;;;3.95;1.80;;;;;;;6.13;50.30;97802.59;5052460;28;20039;-59
2023/02/26 11:54:00;;;;;;;2.13;1.67;;;;;;;6.30;51.11;97797.50;5051102;28;20463;-59